Time;durP1;ratioP1;P1;durP2;ratioP2;P2;SDS_P1;SDS_P2;PMS_P1;PMS_P2;Temp;Humidity;BMP_temperature;BMP_pressure;BME280_temperature;BME280_humidity;BME280_pressure;Samples;Min_cycle;Max_cycle;Signal;HPM_P1;HPM_P2
2021/09/23 00:01:58;;;;;;;26.02;16.40;;;;;;;9.31;54.67;100106.09;5095338;28;20044;-76
2021/09/23 00:04:34;;;;;;;29.63;18.38;;;;;;;9.33;55.41;100122.03;5093387;28;20105;-80
2021/09/23 00:07:03;;;;;;;30.52;17.80;;;;;;;9.22;55.80;100114.69;5093837;28;20044;-80
2021/09/23 00:09:29;;;;;;;26.55;18.27;;;;;;;9.15;56.07;100118.69;5077143;28;20040;-80
2021/09/23 00:11:55;;;;;;;25.83;17.27;;;;;;;9.10;56.47;100120.78;5093794;28;20410;-80
2021/09/23 00:14:21;;;;;;;30.38;19.45;;;;;;;9.07;56.32;100115.66;5093875;28;20505;-80
2021/09/23 00:16:47;;;;;;;27.75;17.52;;;;;;;9.07;56.52;100115.66;5094853;28;20127;-81
2021/09/23 00:19:13;;;;;;;26.08;16.23;;;;;;;9.09;56.77;100127.06;5094316;28;20127;-81
2021/09/23 00:21:39;;;;;;;26.67;15.05;;;;;;;9.05;56.51;100107.72;5095408;28;20097;-77
2021/09/23 00:24:05;;;;;;;23.38;14.95;;;;;;;9.02;56.83;100117.72;5094806;28;20052;-76
2021/09/23 00:26:31;;;;;;;30.15;15.43;;;;;;;8.93;56.86;100122.66;5094565;28;20095;-78
2021/09/23 00:28:56;;;;;;;24.33;14.30;;;;;;;8.80;57.78;100128.81;5076817;28;20071;-76
2021/09/23 00:31:22;;;;;;;20.02;13.05;;;;;;;8.63;58.01;100125.38;5094631;28;20048;-76
2021/09/23 00:33:48;;;;;;;23.38;13.85;;;;;;;8.54;58.54;100125.94;5094899;28;20047;-78
2021/09/23 00:36:14;;;;;;;23.98;12.65;;;;;;;8.47;59.63;100127.25;5076793;28;20040;-77
2021/09/23 00:38:40;;;;;;;26.40;12.50;;;;;;;8.31;60.69;100119.22;5094646;28;20051;-77
2021/09/23 00:41:06;;;;;;;28.40;13.60;;;;;;;8.06;60.77;100110.97;5094396;28;20387;-78
2021/09/23 00:43:32;;;;;;;21.35;13.75;;;;;;;8.12;60.81;100127.44;5094347;28;20131;-77
2021/09/23 00:45:58;;;;;;;25.15;15.13;;;;;;;8.12;60.88;100122.09;5094031;28;20071;-76
2021/09/23 00:48:24;;;;;;;22.83;13.60;;;;;;;8.09;61.42;100132.09;5094195;28;20050;-78
2021/09/23 00:50:51;;;;;;;29.67;14.13;;;;;;;7.96;61.77;100127.44;5093081;28;20274;-78
2021/09/23 00:53:20;;;;;;;22.55;14.10;;;;;;;7.84;62.51;100122.81;5059742;28;20051;-77
2021/09/23 00:55:49;;;;;;;22.52;14.20;;;;;;;7.77;62.57;100124.09;5059582;28;20424;-76
2021/09/23 00:58:18;;;;;;;34.67;16.60;;;;;;;7.79;62.46;100124.91;5076521;28;20043;-77
2021/09/23 01:00:46;;;;;;;49.67;19.83;;;;;;;7.85;62.12;100124.53;5092660;28;20075;-77
2021/09/23 01:03:16;;;;;;;44.58;17.08;;;;;;;7.96;61.22;100122.13;5093059;28;20079;-76
2021/09/23 01:05:44;;;;;;;62.92;20.67;;;;;;;7.98;61.59;100130.03;5075433;28;20131;-77
2021/09/23 01:08:10;;;;;;;49.65;19.15;;;;;;;8.03;61.50;100128.81;5092609;28;20074;-78
2021/09/23 01:10:36;;;;;;;45.42;17.52;;;;;;;8.05;61.39;100120.75;5093755;28;20406;-78
2021/09/23 01:13:02;;;;;;;54.40;19.20;;;;;;;8.10;61.01;100129.34;5093707;28;20068;-77
2021/09/23 01:15:44;;;;;;;56.65;18.77;;;;;;;8.22;60.93;100127.75;5092284;28;20105;-78
2021/09/23 01:18:12;;;;;;;51.15;16.88;;;;;;;8.33;60.69;100129.81;5085711;28;20059;-77
2021/09/23 01:20:42;;;;;;;49.05;18.25;;;;;;;8.42;60.30;100114.16;5078580;28;20060;-78
2021/09/23 01:23:09;;;;;;;49.55;18.40;;;;;;;8.56;59.94;100133.81;5072671;28;20041;-79
2021/09/23 01:25:40;;;;;;;59.88;20.98;;;;;;;8.62;59.65;100122.81;5056085;28;20044;-78
2021/09/23 01:28:06;;;;;;;53.53;19.70;;;;;;;8.66;59.38;100127.00;5055162;28;20040;-76
2021/09/23 01:30:48;;;;;;;56.90;19.77;;;;;;;8.73;59.20;100123.03;5040891;28;20090;-78
2021/09/23 01:33:14;;;;;;;52.53;19.35;;;;;;;8.79;59.01;100124.44;5054971;28;20105;-78
2021/09/23 01:35:40;;;;;;;45.45;17.70;;;;;;;8.81;58.98;100120.75;5038775;28;20154;-77
2021/09/23 01:38:06;;;;;;;48.15;16.20;;;;;;;8.86;59.00;100131.13;5071948;28;20048;-77
2021/09/23 01:40:35;;;;;;;35.28;15.98;;;;;;;8.83;59.15;100129.50;5055485;28;20071;-77
2021/09/23 01:43:02;;;;;;;32.97;15.90;;;;;;;8.83;59.35;100132.16;5038477;28;20040;-77
2021/09/23 01:45:29;;;;;;;33.35;15.30;;;;;;;8.83;59.32;100140.16;5080398;28;20126;-77
2021/09/23 01:47:54;;;;;;;37.72;16.83;;;;;;;8.85;59.35;100138.28;5075177;28;20096;-79
2021/09/23 01:50:23;;;;;;;37.00;16.50;;;;;;;8.90;59.33;100133.50;5092072;28;20517;-79
2021/09/23 01:52:54;;;;;;;33.00;17.77;;;;;;;8.96;59.29;100129.63;5092597;28;20126;-79
2021/09/23 01:55:20;;;;;;;35.40;19.67;;;;;;;8.93;58.91;100141.34;5093313;28;20082;-78
2021/09/23 01:57:48;;;;;;;33.60;17.42;;;;;;;8.92;59.23;100134.28;5082674;28;20047;-78
2021/09/23 02:00:14;;;;;;;40.28;19.38;;;;;;;8.97;59.27;100137.53;5058280;28;20058;-77
2021/09/23 02:02:42;;;;;;;32.17;18.93;;;;;;;8.99;59.40;100140.13;5075536;28;20525;-78
2021/09/23 02:05:22;;;;;;;41.03;18.30;;;;;;;8.97;59.21;100132.19;5091468;28;20363;-79
2021/09/23 02:07:48;;;;;;;44.28;18.90;;;;;;;8.97;59.11;100139.34;5092845;28;20048;-78
2021/09/23 02:10:16;;;;;;;33.33;18.20;;;;;;;9.00;59.09;100137.34;5058310;28;20097;-78
2021/09/23 02:12:42;;;;;;;31.83;16.75;;;;;;;9.00;58.69;100148.03;5074586;28;20071;-77
2021/09/23 02:15:11;;;;;;;34.22;15.80;;;;;;;9.06;58.51;100143.25;5064313;28;20051;-77
2021/09/23 02:17:37;;;;;;;33.97;16.55;;;;;;;9.12;58.71;100145.56;5071832;28;20071;-77
2021/09/23 02:20:08;;;;;;;38.22;15.23;;;;;;;9.17;58.57;100149.63;5072246;28;20118;-77
2021/09/23 02:22:42;;;;;;;38.35;14.68;;;;;;;9.27;57.99;100152.63;5025578;28;20040;-77
2021/09/23 02:25:09;;;;;;;43.30;13.65;;;;;;;9.32;57.68;100153.19;5072519;28;20041;-79
2021/09/23 02:27:35;;;;;;;31.42;13.32;;;;;;;9.41;57.54;100157.97;5058377;28;20056;-81
2021/09/23 02:30:03;;;;;;;41.88;12.82;;;;;;;9.48;57.18;100153.97;5075327;28;20557;-78
2021/09/23 02:32:29;;;;;;;36.30;12.88;;;;;;;9.61;56.80;100158.50;5041875;28;20044;-78
2021/09/23 02:34:56;;;;;;;45.33;12.85;;;;;;;9.66;56.40;100157.25;5074941;28;20131;-78
2021/09/23 02:37:23;;;;;;;44.38;12.90;;;;;;;9.69;56.14;100156.22;5041976;28;20044;-81
2021/09/23 02:39:50;;;;;;;33.20;13.38;;;;;;;9.54;56.45;100159.84;5079463;28;20051;-80
2021/09/23 02:42:16;;;;;;;37.95;12.18;;;;;;;9.42;56.78;100165.00;5078663;28;20044;-77
2021/09/23 02:44:42;;;;;;;33.47;13.68;;;;;;;9.44;56.77;100160.44;5095071;28;20062;-77
2021/09/23 02:47:08;;;;;;;43.20;13.10;;;;;;;9.48;56.59;100159.28;5078124;28;20039;-76
2021/09/23 02:49:34;;;;;;;38.67;14.07;;;;;;;9.50;56.46;100164.53;5061825;28;20052;-77
2021/09/23 02:52:00;;;;;;;29.20;12.05;;;;;;;9.53;56.58;100171.50;5095009;28;20101;-78
2021/09/23 02:54:26;;;;;;;35.28;13.07;;;;;;;9.56;56.26;100161.47;5096089;28;20079;-80
2021/09/23 02:56:52;;;;;;;31.92;12.93;;;;;;;9.61;56.20;100169.19;5077936;28;20131;-80
2021/09/23 02:59:18;;;;;;;40.85;12.88;;;;;;;9.66;55.96;100169.75;5094633;28;20040;-80
2021/09/23 03:01:44;;;;;;;41.83;13.85;;;;;;;9.72;55.64;100172.91;5077876;28;20047;-76
2021/09/23 03:04:10;;;;;;;39.47;14.15;;;;;;;9.68;55.70;100171.38;5094637;28;20470;-79
2021/09/23 03:06:36;;;;;;;39.28;13.68;;;;;;;9.82;56.10;100173.19;5061622;28;20121;-81
2021/09/23 03:09:02;;;;;;;39.97;13.88;;;;;;;9.95;55.60;100178.59;5061464;28;20052;-77
2021/09/23 03:11:30;;;;;;;40.38;15.43;;;;;;;10.07;55.58;100179.59;5061419;28;20052;-81
2021/09/23 03:13:57;;;;;;;33.85;14.63;;;;;;;10.04;55.23;100177.13;5085777;28;20044;-76
2021/09/23 03:16:23;;;;;;;55.58;14.80;;;;;;;9.89;55.47;100185.19;5073656;28;20517;-83
2021/09/23 03:18:49;;;;;;;35.30;13.77;;;;;;;9.97;55.53;100182.88;5078209;28;20055;-87
2021/09/23 03:21:15;;;;;;;45.10;14.40;;;;;;;10.16;55.13;100184.38;5029065;28;20406;-88
2021/09/23 03:23:41;;;;;;;40.25;14.82;;;;;;;10.18;55.18;100174.44;5078188;28;20044;-85
2021/09/23 03:26:07;;;;;;;52.33;14.32;;;;;;;10.41;54.92;100192.50;5094697;28;20498;-81
2021/09/23 03:28:33;;;;;;;33.42;14.52;;;;;;;10.47;54.58;100190.41;5078194;28;20109;-82
2021/09/23 03:30:59;;;;;;;48.03;14.43;;;;;;;10.50;54.11;100198.22;5077881;28;20103;-78
2021/09/23 03:33:25;;;;;;;35.33;15.38;;;;;;;10.58;54.33;100198.56;5060948;28;20490;-81
2021/09/23 03:35:51;;;;;;;36.17;14.57;;;;;;;10.73;54.38;100192.19;5095519;28;20043;-83
2021/09/23 03:38:17;;;;;;;32.92;15.63;;;;;;;10.99;53.98;100198.47;5069884;28;20485;-83
2021/09/23 03:40:48;;;;;;;42.70;15.05;;;;;;;11.26;53.56;100203.75;5083997;28;20124;-80
2021/09/23 03:43:17;;;;;;;29.90;13.38;;;;;;;11.41;53.23;100196.47;5075489;28;20044;-79
2021/09/23 03:45:43;;;;;;;31.80;14.18;;;;;;;11.59;52.65;100213.06;5024190;28;20036;-79
2021/09/23 03:48:09;;;;;;;40.55;15.98;;;;;;;11.71;52.46;100212.19;5057277;28;20082;-79
2021/09/23 03:50:35;;;;;;;41.58;13.85;;;;;;;11.87;52.36;100218.19;5058523;28;20047;-78
2021/09/23 03:53:02;;;;;;;51.17;15.27;;;;;;;11.97;51.37;100228.28;5071004;28;20048;-78
2021/09/23 03:55:27;;;;;;;44.78;14.88;;;;;;;12.04;51.47;100218.81;5077184;28;20049;-77
2021/09/23 03:57:53;;;;;;;31.38;15.80;;;;;;;12.03;51.36;100217.94;5093899;28;20048;-79
2021/09/23 04:00:25;;;;;;;41.45;14.52;;;;;;;12.09;51.06;100216.66;5093877;28;20048;-79
2021/09/23 04:02:52;;;;;;;46.92;16.15;;;;;;;11.99;50.73;100210.25;5093881;28;20047;-80
2021/09/23 04:05:18;;;;;;;42.10;14.07;;;;;;;12.06;51.26;100216.88;5060117;28;20060;-79
2021/09/23 04:07:44;;;;;;;41.88;14.98;;;;;;;12.29;51.39;100212.53;5061170;28;20050;-78
2021/09/23 04:10:10;;;;;;;38.80;14.45;;;;;;;12.39;50.30;100209.06;5093945;28;20059;-79
2021/09/23 04:12:36;;;;;;;40.70;16.08;;;;;;;12.49;50.13;100213.75;5092456;28;20047;-80
2021/09/23 04:15:04;;;;;;;60.97;16.77;;;;;;;12.85;49.34;100205.59;5092128;28;20178;-80
2021/09/23 04:17:30;;;;;;;43.88;14.68;;;;;;;13.18;48.89;100211.22;5042667;28;20052;-76
2021/09/23 04:19:56;;;;;;;43.05;15.48;;;;;;;13.46;48.65;100209.94;5093711;28;20139;-76
2021/09/23 04:22:22;;;;;;;40.47;15.40;;;;;;;13.64;48.43;100213.88;5059312;28;20040;-76
2021/09/23 04:24:48;;;;;;;42.92;16.05;;;;;;;13.92;47.40;100211.69;5075550;28;20071;-76
2021/09/23 04:27:14;;;;;;;43.47;12.65;;;;;;;14.12;46.72;100219.00;5074055;28;20048;-75
2021/09/23 04:29:43;;;;;;;41.05;11.27;;;;;;;14.12;45.02;100219.00;5090594;28;20048;-75
2021/09/23 04:32:13;;;;;;;41.45;9.70;;;;;;;14.18;43.97;100217.63;5090473;28;20043;-76
2021/09/23 04:34:39;;;;;;;43.42;9.05;;;;;;;14.25;43.04;100221.53;5073556;28;20069;-76
2021/09/23 04:37:06;;;;;;;23.30;8.15;;;;;;;14.17;42.20;100230.22;5041519;28;20040;-78
2021/09/23 04:39:33;;;;;;;31.73;8.13;;;;;;;14.13;42.62;100226.09;5057924;28;20050;-78
2021/09/23 04:41:59;;;;;;;21.95;7.20;;;;;;;14.25;41.66;100227.75;5059931;28;20067;-78
2021/09/23 04:44:25;;;;;;;18.30;6.72;;;;;;;14.26;41.08;100221.44;5059379;28;20459;-79
2021/09/23 04:46:52;;;;;;;20.83;5.90;;;;;;;14.34;40.33;100240.47;5075989;28;20048;-78
2021/09/23 04:49:18;;;;;;;24.02;6.68;;;;;;;14.37;40.68;100233.13;5075311;28;20044;-78
2021/09/23 04:51:44;;;;;;;15.23;6.40;;;;;;;14.41;40.39;100234.63;5093133;28;20074;-78
2021/09/23 04:54:10;;;;;;;13.88;5.97;;;;;;;14.34;40.99;100235.09;5075896;28;20510;-78
2021/09/23 04:56:36;;;;;;;12.07;5.68;;;;;;;14.44;39.66;100245.09;5059555;28;20036;-79
2021/09/23 04:59:03;;;;;;;12.65;5.50;;;;;;;14.41;39.87;100229.25;5075796;28;20101;-78
2021/09/23 05:01:29;;;;;;;9.02;4.70;;;;;;;14.47;40.14;100239.47;5075622;28;20406;-78
2021/09/23 05:03:56;;;;;;;11.38;5.28;;;;;;;14.52;40.63;100243.53;5094025;28;20052;-78
2021/09/23 05:06:22;;;;;;;12.65;4.68;;;;;;;14.38;39.86;100242.94;5059281;28;20070;-78
2021/09/23 05:08:51;;;;;;;15.45;5.05;;;;;;;14.25;40.59;100238.53;5076251;28;20066;-78
2021/09/23 05:11:17;;;;;;;16.88;4.75;;;;;;;14.34;40.95;100245.88;5092556;28;20047;-78
2021/09/23 05:13:44;;;;;;;13.20;4.43;;;;;;;14.45;40.37;100236.06;5092447;28;20047;-78
2021/09/23 05:16:12;;;;;;;14.35;4.53;;;;;;;14.58;39.97;100231.41;5059063;28;20067;-78
2021/09/23 05:24:47;;;;;;;8.10;4.45;;;;;;;14.76;40.48;100235.25;5093845;28;20097;-77
2021/09/23 05:27:13;;;;;;;10.05;5.00;;;;;;;14.81;40.28;100240.25;5092176;28;20052;-78
2021/09/23 05:29:41;;;;;;;13.00;5.10;;;;;;;15.04;40.06;100241.91;5092176;28;20054;-78
2021/09/23 05:32:07;;;;;;;11.40;4.95;;;;;;;15.28;39.79;100230.88;5075742;28;20044;-78
2021/09/23 05:34:33;;;;;;;12.07;4.63;;;;;;;15.59;39.71;100239.00;5093103;28;20490;-78
2021/09/23 05:36:59;;;;;;;17.17;4.93;;;;;;;15.91;38.58;100241.63;5093182;28;20063;-78
2021/09/23 05:39:26;;;;;;;9.85;4.50;;;;;;;16.05;37.73;100236.84;5092732;28;20513;-78
2021/09/23 05:41:51;;;;;;;13.82;4.35;;;;;;;16.16;37.46;100234.88;5074970;28;20120;-78
2021/09/23 05:44:23;;;;;;;7.85;3.80;;;;;;;16.27;37.00;100234.78;5091802;28;20142;-78
2021/09/23 05:46:52;;;;;;;8.77;4.28;;;;;;;16.48;36.48;100239.25;5093469;28;20051;-78
2021/09/23 05:49:18;;;;;;;;;;;;;;;16.59;36.56;100233.75;5092332;28;20043;-77
2021/09/23 05:51:44;;;;;;;15.45;4.10;;;;;;;16.70;36.07;100233.63;5074896;28;19927;-79
2021/09/23 05:54:10;;;;;;;12.63;4.13;;;;;;;16.94;35.90;100229.66;5091542;28;20081;-79
2021/09/23 05:56:36;;;;;;;14.50;4.43;;;;;;;17.23;35.54;100233.22;5075207;28;20472;-78
2021/09/23 05:59:01;;;;;;;11.32;4.05;;;;;;;17.45;34.26;100236.56;5092875;28;20074;-77
2021/09/23 06:01:27;;;;;;;8.02;3.78;;;;;;;17.60;33.43;100245.97;5092657;28;20054;-78
2021/09/23 06:03:53;;;;;;;17.92;4.13;;;;;;;17.58;33.93;100237.13;5091047;28;20561;-78
2021/09/23 06:06:19;;;;;;;14.40;4.10;;;;;;;17.59;33.65;100244.25;5091618;28;20068;-79
2021/09/23 06:08:45;;;;;;;11.63;3.95;;;;;;;17.62;33.81;100233.13;5058220;28;20138;-79
2021/09/23 06:11:11;;;;;;;42.00;30.23;;;;;;;17.72;33.97;100242.09;5074888;28;20452;-78
2021/09/23 06:13:37;;;;;;;6.70;4.03;;;;;;;17.93;34.08;100247.28;5091385;28;20040;-77
2021/09/23 06:16:03;;;;;;;16.42;4.28;;;;;;;18.08;33.42;100244.97;5092687;28;20032;-76
2021/09/23 06:18:29;;;;;;;10.93;4.03;;;;;;;18.26;33.84;100242.31;5092900;28;20036;-78
2021/09/23 06:20:55;;;;;;;10.88;4.20;;;;;;;18.35;33.29;100241.41;5092042;28;20048;-76
2021/09/23 06:23:21;;;;;;;18.20;4.05;;;;;;;18.07;33.18;100239.72;5093086;28;20509;-78
2021/09/23 06:25:46;;;;;;;12.40;4.32;;;;;;;17.91;32.92;100243.91;5091376;28;20069;-79
2021/09/23 06:28:12;;;;;;;10.77;4.80;;;;;;;18.30;33.15;100249.13;5091654;28;20127;-79
2021/09/23 06:30:38;;;;;;;11.73;4.10;;;;;;;18.66;32.56;100250.06;5091270;28;20139;-79
2021/09/23 06:33:04;;;;;;;13.88;4.78;;;;;;;18.83;32.04;100244.84;5092604;28;20055;-79
2021/09/23 06:35:30;;;;;;;7.47;4.50;;;;;;;18.78;31.85;100241.75;5041527;28;20453;-79
2021/09/23 06:37:56;;;;;;;14.20;4.40;;;;;;;18.86;31.36;100239.97;5074674;28;20047;-79
2021/09/23 06:40:22;;;;;;;10.02;4.65;;;;;;;19.05;31.61;100240.84;5074315;28;20050;-78
2021/09/23 06:42:48;;;;;;;8.95;4.88;;;;;;;19.28;30.92;100241.19;5091281;28;20123;-79
2021/09/23 06:45:14;;;;;;;11.18;5.22;;;;;;;19.31;31.25;100244.44;5091325;28;20487;-78
2021/09/23 06:47:40;;;;;;;7.50;4.53;;;;;;;19.35;30.92;100236.84;5074304;28;20036;-80
2021/09/23 06:50:06;;;;;;;7.95;3.78;;;;;;;19.48;30.31;100239.13;5091607;28;20134;-78
2021/09/23 06:52:32;;;;;;;13.68;4.50;;;;;;;19.20;30.52;100233.84;5074661;28;20052;-77
2021/09/23 06:54:59;;;;;;;7.95;4.03;;;;;;;19.33;31.07;100230.72;5091931;28;20051;-79
2021/09/23 06:57:25;;;;;;;9.43;4.68;;;;;;;19.60;30.85;100224.34;5090931;28;20067;-79
2021/09/23 07:00:09;;;;;;;10.70;3.75;;;;;;;19.72;30.31;100219.53;5062612;28;20452;-80
2021/09/23 07:03:01;;;;;;;9.18;3.85;;;;;;;19.56;30.68;100212.94;5090377;28;20078;-80
2021/09/23 07:05:34;;;;;;;9.10;3.63;;;;;;;19.82;29.62;100212.97;5090804;28;20060;-80
2021/09/23 07:08:00;;;;;;;7.28;3.67;;;;;;;19.86;29.65;100205.38;5091093;28;20478;-78
2021/09/23 07:10:26;;;;;;;7.05;3.40;;;;;;;20.06;29.31;100200.53;5074235;28;20525;-80
2021/09/23 07:12:52;;;;;;;11.70;3.85;;;;;;;20.30;29.22;100199.75;5094260;28;20140;-79
2021/09/23 07:15:18;;;;;;;7.82;3.30;;;;;;;20.47;28.67;100200.69;5095380;28;20118;-79
2021/09/23 07:17:44;;;;;;;10.00;3.22;;;;;;;20.42;28.29;100194.88;5079287;28;20040;-79
2021/09/23 07:20:12;;;;;;;9.75;3.70;;;;;;;20.18;29.00;100192.94;5095361;28;20068;-80
2021/09/23 07:22:38;;;;;;;12.00;3.42;;;;;;;20.42;28.45;100176.72;5094701;28;20131;-79
2021/09/23 07:25:05;;;;;;;8.55;3.58;;;;;;;20.52;28.46;100180.16;5077669;28;20044;-78
2021/09/23 07:27:31;;;;;;;9.02;4.63;;;;;;;20.33;28.00;100170.41;5077652;28;20055;-79
2021/09/23 07:29:56;;;;;;;20.73;3.63;;;;;;;20.33;28.21;100167.69;5061099;28;20063;-79
2021/09/23 07:32:22;;;;;;;9.43;3.00;;;;;;;20.42;28.43;100168.56;5077757;28;20051;-78
2021/09/23 07:34:48;;;;;;;10.63;3.60;;;;;;;20.52;28.31;100163.03;5095836;28;20051;-79
2021/09/23 07:37:14;;;;;;;8.88;3.53;;;;;;;20.33;28.01;100162.28;5095562;28;20494;-78
2021/09/23 07:39:41;;;;;;;8.80;4.00;;;;;;;20.32;28.61;100154.31;5043951;28;20047;-79
2021/09/23 07:42:08;;;;;;;8.38;3.30;;;;;;;20.44;27.33;100161.13;5094251;28;20052;-78
2021/09/23 07:44:36;;;;;;;11.68;3.92;;;;;;;20.18;27.96;100160.38;5095403;28;20131;-80
2021/09/23 07:47:03;;;;;;;8.02;3.50;;;;;;;20.29;27.97;100151.91;5094102;28;20040;-79
2021/09/23 07:49:29;;;;;;;9.88;4.65;;;;;;;20.64;27.64;100145.38;5060522;28;20447;-79
2021/09/23 07:51:55;;;;;;;8.48;4.18;;;;;;;20.93;27.45;100147.59;5043859;28;20261;-78
2021/09/23 07:54:21;;;;;;;10.88;3.67;;;;;;;20.92;26.20;100148.63;5093817;28;20040;-79
2021/09/23 07:56:48;;;;;;;6.15;3.90;;;;;;;20.84;26.59;100145.94;5093754;28;20088;-80
2021/09/23 07:59:13;;;;;;;16.33;4.20;;;;;;;21.00;26.37;100145.06;5060151;28;20048;-78
2021/09/23 08:01:40;;;;;;;10.70;4.50;;;;;;;21.09;26.68;100144.03;5093749;28;20044;-81
2021/09/23 08:04:06;;;;;;;12.65;4.90;;;;;;;21.16;26.55;100144.19;5093647;28;20040;-79
2021/09/23 08:06:33;;;;;;;12.63;4.43;;;;;;;21.21;26.32;100145.41;5093328;28;20065;-79
2021/09/23 08:08:59;;;;;;;11.23;4.47;;;;;;;21.07;25.08;100152.38;5093500;28;20075;-81
2021/09/23 08:11:25;;;;;;;11.80;4.40;;;;;;;21.07;25.68;100149.66;5076976;28;20048;-79
2021/09/23 08:13:57;;;;;;;7.47;4.28;;;;;;;21.10;25.51;100149.31;5062053;28;20077;-78
2021/09/23 08:16:23;;;;;;;11.80;4.70;;;;;;;21.04;25.25;100149.97;5060388;28;20051;-79
2021/09/23 08:19:18;;;;;;;9.57;4.90;;;;;;;21.13;26.10;100145.38;5085390;28;20060;-80
2021/09/23 08:22:11;;;;;;;8.10;4.20;;;;;;;21.32;25.25;100152.31;5093116;28;20055;-80
2021/09/23 08:24:37;;;;;;;10.65;3.70;;;;;;;21.09;25.12;100149.47;5076275;28;20072;-80
2021/09/23 08:27:22;;;;;;;10.02;3.58;;;;;;;21.08;25.03;100142.34;5094369;28;20565;-79
2021/09/23 08:29:49;;;;;;;19.77;4.10;;;;;;;20.81;24.98;100136.22;5093253;28;20161;-78
2021/09/23 08:32:19;;;;;;;8.52;3.83;;;;;;;20.74;25.53;100134.38;5094432;28;20146;-79
2021/09/23 08:34:47;;;;;;;19.38;4.70;;;;;;;21.12;25.07;100142.84;5045759;28;20051;-80
2021/09/23 08:37:14;;;;;;;12.25;3.80;;;;;;;21.10;24.21;100145.75;5076156;28;20051;-79
2021/09/23 08:39:39;;;;;;;13.68;4.82;;;;;;;21.04;24.75;100143.69;5076364;28;20062;-78
2021/09/23 08:42:06;;;;;;;8.75;4.55;;;;;;;21.06;25.02;100149.81;5076430;28;20048;-80
2021/09/23 08:44:32;;;;;;;11.75;4.53;;;;;;;21.46;24.57;100140.78;5092742;28;20445;-80
2021/09/23 08:46:58;;;;;;;15.25;5.75;;;;;;;21.86;24.37;100147.13;5092948;28;20052;-80
2021/09/23 08:49:25;;;;;;;9.07;4.07;;;;;;;22.15;24.24;100141.03;5075733;28;20499;-79
2021/09/23 08:51:51;;;;;;;17.58;4.20;;;;;;;22.18;23.46;100134.41;5093174;28;20039;-80
2021/09/23 08:54:17;;;;;;;8.30;3.28;;;;;;;22.14;23.85;100138.50;5076207;28;20073;-80
2021/09/23 08:56:44;;;;;;;7.63;3.50;;;;;;;22.16;22.84;100125.59;5075809;28;20040;-80
2021/09/23 08:59:11;;;;;;;7.28;3.60;;;;;;;21.87;22.80;100129.75;5094163;28;20048;-80
2021/09/23 09:01:46;;;;;;;9.35;3.67;;;;;;;22.07;23.29;100132.88;5093035;28;20036;-78
2021/09/23 09:04:32;;;;;;;7.03;3.50;;;;;;;22.40;22.64;100133.59;5063672;28;20071;-79
2021/09/23 09:07:08;;;;;;;9.98;4.13;;;;;;;22.65;22.55;100136.16;5062132;28;20056;-78
2021/09/23 09:10:05;;;;;;;6.03;3.75;;;;;;;22.86;22.78;100133.59;5084337;28;20139;-79
2021/09/23 09:12:33;;;;;;;6.13;3.60;;;;;;;22.90;21.72;100124.00;5027270;28;20479;-79
2021/09/23 09:14:59;;;;;;;8.23;3.30;;;;;;;22.86;21.42;100125.41;5075545;28;20048;-78
2021/09/23 09:17:25;;;;;;;10.27;3.30;;;;;;;23.05;21.17;100125.97;5092239;28;20403;-81
2021/09/23 09:19:59;;;;;;;;;;;;;;;22.99;21.33;100120.22;5092758;28;20075;-79
2021/09/23 09:22:27;;;;;;;10.07;3.33;;;;;;;23.30;21.22;100124.69;5092739;28;20278;-79
2021/09/23 09:24:58;;;;;;;12.98;2.97;;;;;;;23.57;20.22;100123.22;5042393;28;20051;-79
2021/09/23 09:27:26;;;;;;;5.80;2.70;;;;;;;23.57;20.18;100108.72;5042749;28;20044;-78
2021/09/23 09:29:57;;;;;;;20.75;3.00;;;;;;;23.51;19.50;100105.72;5093215;28;20093;-79
2021/09/23 09:32:59;;;;;;;6.78;3.10;;;;;;;23.61;20.34;100115.50;5042952;28;20047;-80
2021/09/23 09:35:34;;;;;;;5.50;3.08;;;;;;;23.85;20.10;100109.78;5063406;28;20056;-80
2021/09/23 09:38:04;;;;;;;7.32;2.92;;;;;;;23.73;19.93;100108.56;5092053;28;20040;-80
2021/09/23 09:40:35;;;;;;;7.35;3.10;;;;;;;23.80;19.67;100112.22;5075755;28;20044;-78
2021/09/23 09:43:09;;;;;;;7.82;2.97;;;;;;;23.98;19.32;100115.41;5075413;28;20048;-80
2021/09/23 09:45:36;;;;;;;4.80;3.30;;;;;;;23.95;19.47;100112.19;5042896;28;20122;-78
2021/09/23 09:48:03;;;;;;;7.25;3.47;;;;;;;24.04;19.68;100115.69;5091724;28;20050;-78
2021/09/23 09:50:32;;;;;;;6.82;2.92;;;;;;;23.74;19.34;100099.34;5092070;28;20080;-82
2021/09/23 09:53:06;;;;;;;4.65;2.80;;;;;;;23.64;20.06;100104.22;5074740;28;20065;-81
2021/09/23 09:55:32;;;;;;;13.52;3.80;;;;;;;23.47;20.28;100098.94;5042246;28;20052;-80
2021/09/23 09:58:02;;;;;;;6.53;3.03;;;;;;;23.55;20.34;100094.44;5058618;28;20143;-79
2021/09/23 10:00:33;;;;;;;8.02;3.00;;;;;;;24.02;19.99;100104.09;5058980;28;20043;-79
2021/09/23 10:03:00;;;;;;;9.65;3.10;;;;;;;24.36;19.60;100103.44;5091776;28;20044;-80
2021/09/23 10:05:33;;;;;;;6.20;3.03;;;;;;;24.83;19.85;100102.06;5090981;28;20044;-78
2021/09/23 10:08:08;;;;;;;10.63;2.90;;;;;;;25.26;19.23;100100.09;5090579;28;20063;-79
2021/09/23 10:10:35;;;;;;;6.97;2.83;;;;;;;25.49;18.47;100104.44;5042262;28;20401;-80
2021/09/23 10:13:05;;;;;;;8.52;3.63;;;;;;;25.64;18.07;100086.84;5058702;28;20503;-79
2021/09/23 10:15:32;;;;;;;4.22;2.80;;;;;;;25.65;18.85;100090.44;5091726;28;20077;-79
2021/09/23 10:18:03;;;;;;;9.17;2.80;;;;;;;26.00;18.52;100091.28;5075118;28;20043;-80
2021/09/23 10:20:32;;;;;;;3.85;2.50;;;;;;;26.15;18.43;100083.72;5058913;28;20097;-80
2021/09/23 10:23:00;;;;;;;6.10;2.70;;;;;;;25.96;18.17;100075.44;5041462;28;20415;-79
2021/09/23 10:25:30;;;;;;;7.10;3.00;;;;;;;26.18;18.54;100077.00;5074643;28;20051;-79
2021/09/23 10:28:03;;;;;;;6.47;3.10;;;;;;;26.54;18.06;100081.31;5075377;28;20047;-79
2021/09/23 10:30:39;;;;;;;7.28;3.05;;;;;;;26.63;17.66;100071.84;5043505;28;20490;-80
2021/09/23 10:33:07;;;;;;;8.23;3.00;;;;;;;26.80;17.65;100059.38;5058624;28;20070;-79
2021/09/23 10:35:33;;;;;;;6.90;3.40;;;;;;;27.26;17.41;100058.53;5058045;28;20036;-80
2021/09/23 10:38:08;;;;;;;5.18;2.70;;;;;;;27.23;17.08;100071.84;5091731;28;20359;-79
2021/09/23 10:40:35;;;;;;;6.07;2.58;;;;;;;27.46;16.96;100064.00;5058152;28;20082;-80
2021/09/23 10:43:04;;;;;;;7.13;2.88;;;;;;;27.78;17.17;100053.97;5057817;28;20048;-80
2021/09/23 10:45:30;;;;;;;4.65;2.60;;;;;;;27.98;16.56;100053.03;5091184;28;20044;-78
2021/09/23 10:48:00;;;;;;;3.00;2.45;;;;;;;27.91;16.37;100055.81;5075739;28;20048;-78
2021/09/23 10:50:30;;;;;;;9.38;3.42;;;;;;;27.60;16.46;100053.78;5077848;28;20040;-80
2021/09/23 10:53:01;;;;;;;7.72;3.58;;;;;;;27.29;16.83;100058.09;5046954;28;20096;-79
2021/09/23 10:55:32;;;;;;;7.95;3.17;;;;;;;26.98;16.90;100046.94;5094396;28;20482;-80
2021/09/23 10:57:58;;;;;;;8.73;3.30;;;;;;;27.18;16.83;100045.03;5078245;28;20055;-79
2021/09/23 11:00:50;;;;;;;5.35;3.17;;;;;;;27.34;16.91;100036.34;5061965;28;20044;-79
2021/09/23 11:03:16;;;;;;;8.02;3.97;;;;;;;27.76;16.35;100036.03;5094783;28;20502;-79
2021/09/23 11:05:43;;;;;;;7.63;4.18;;;;;;;27.95;16.44;100028.75;5061006;28;20052;-80
2021/09/23 11:08:14;;;;;;;10.13;4.18;;;;;;;28.14;16.39;100029.72;5077686;28;20044;-79
2021/09/23 11:10:41;;;;;;;13.43;4.13;;;;;;;28.29;16.08;100024.75;5078857;28;20502;-79
2021/09/23 11:13:08;;;;;;;8.75;3.83;;;;;;;28.70;15.98;100038.00;5077683;28;20044;-79
2021/09/23 11:15:34;;;;;;;8.65;4.53;;;;;;;28.75;15.83;100035.41;5061040;28;20090;-79
2021/09/23 11:18:00;;;;;;;12.48;4.25;;;;;;;29.03;15.67;100037.72;5060992;28;20036;-80
2021/09/23 11:20:31;;;;;;;59.72;8.90;;;;;;;29.23;15.41;100043.03;5077923;28;20040;-79
2021/09/23 11:23:05;;;;;;;12.93;4.38;;;;;;;29.32;15.68;100023.47;5077903;28;20040;-79
2021/09/23 11:25:34;;;;;;;27.40;5.35;;;;;;;29.69;15.57;100027.91;5078463;28;20185;-79
2021/09/23 11:28:01;;;;;;;6.90;3.33;;;;;;;29.60;14.84;100031.19;5094523;28;20078;-79
2021/09/23 11:30:31;;;;;;;9.95;3.30;;;;;;;29.31;15.36;100027.28;5077973;28;20036;-78